Time;durP1;ratioP1;P1;durP2;ratioP2;P2;SDS_P1;SDS_P2;PMS_P1;PMS_P2;Temp;Humidity;BMP_temperature;BMP_pressure;BME280_temperature;BME280_humidity;BME280_pressure;Samples;Min_cycle;Max_cycle;Signal;HPM_P1;HPM_P2
2021/12/28 00:02:45;;;;;;;9.17;5.00;;;;;;;17.80;42.11;98356.43;1822650;77;28244;-63
2021/12/28 00:05:33;;;;;;;6.93;4.47;;;;;;;17.79;42.09;98361.55;1817631;77;28417;-63
2021/12/28 00:08:22;;;;;;;10.50;4.47;;;;;;;17.82;42.06;98364.34;1809903;77;28302;-61
2021/12/28 00:11:11;;;;;;;9.08;4.65;;;;;;;17.78;42.09;98351.73;1809330;77;28236;-60
2021/12/28 00:14:01;;;;;;;8.58;4.83;;;;;;;17.81;42.05;98355.35;1809803;77;28267;-62
2021/12/28 00:19:55;;;;;;;5.58;3.83;;;;;;;17.78;42.08;98335.98;1826212;77;28358;-61
2021/12/28 00:22:43;;;;;;;6.92;4.17;;;;;;;17.81;42.08;98328.71;1830507;76;28220;-62
2021/12/28 00:25:32;;;;;;;6.15;4.15;;;;;;;17.81;42.06;98332.27;1845853;76;28137;-62
2021/12/28 00:28:23;;;;;;;4.83;3.83;;;;;;;17.80;41.99;98327.91;1819272;78;28257;-62
2021/12/28 00:31:15;;;;;;;5.97;3.92;;;;;;;17.82;42.05;98329.86;1841415;77;28267;-62
2021/12/28 00:34:02;;;;;;;5.97;3.85;;;;;;;17.81;42.03;98308.34;1842005;76;28150;-62
2021/12/28 00:36:50;;;;;;;4.50;3.60;;;;;;;17.82;42.06;98316.80;1857794;76;28097;-62
2021/12/28 00:39:39;;;;;;;5.33;3.75;;;;;;;17.80;42.06;98319.77;1842794;77;28417;-62
2021/12/28 00:42:28;;;;;;;5.58;3.83;;;;;;;17.84;42.04;98323.66;1832590;77;28354;-61
2021/12/28 00:45:16;;;;;;;4.72;3.75;;;;;;;17.82;42.03;98302.70;1836969;77;28238;-62
2021/12/28 00:48:05;;;;;;;5.75;3.65;;;;;;;17.84;41.96;98299.73;1832799;77;28634;-62
2021/12/28 00:50:53;;;;;;;4.83;3.77;;;;;;;17.84;42.00;98296.50;1843199;77;28093;-61
2021/12/28 00:53:42;;;;;;;5.93;3.67;;;;;;;17.83;42.04;98289.39;1847202;77;28269;-62
2021/12/28 00:56:30;;;;;;;6.60;4.17;;;;;;;17.82;42.02;98280.97;1835625;77;28198;-61
2021/12/28 00:59:19;;;;;;;5.03;3.27;;;;;;;17.82;42.00;98278.25;1844975;77;28176;-61
2021/12/28 01:02:08;;;;;;;5.20;3.27;;;;;;;17.85;42.03;98281.04;1824955;77;28348;-61
2021/12/28 01:04:56;;;;;;;5.12;3.30;;;;;;;17.84;41.97;98297.86;1824788;78;28307;-61
2021/12/28 01:07:45;;;;;;;5.45;3.52;;;;;;;17.84;42.00;98293.78;1845118;77;28298;-62
2021/12/28 01:10:37;;;;;;;4.67;3.30;;;;;;;17.86;41.99;98282.16;1836427;77;28821;-61
2021/12/28 01:13:27;;;;;;;4.60;3.20;;;;;;;17.85;42.00;98275.05;1824931;78;28331;-62
2021/12/28 07:10:29;;;;;;;1.75;1.65;;;;;;;14.06;55.84;98400.41;1919198;72;28113;-63
2021/12/28 07:13:18;;;;;;;2.50;2.00;;;;;;;14.33;54.62;98412.91;1901542;75;28109;-63
2021/12/28 07:16:08;;;;;;;2.83;1.70;;;;;;;14.75;53.55;98408.94;1894425;75;28120;-63
2021/12/28 07:18:57;;;;;;;2.60;1.98;;;;;;;15.03;52.71;98420.33;1880193;75;28069;-63
2021/12/28 07:21:47;;;;;;;1.95;1.80;;;;;;;15.29;51.92;98427.55;1880501;74;28461;-63
2021/12/28 07:24:36;;;;;;;2.50;1.70;;;;;;;15.57;51.09;98427.26;1901178;74;28220;-62
2021/12/28 07:27:25;;;;;;;1.72;1.62;;;;;;;15.69;50.36;98429.09;1902391;75;28116;-62
2021/12/28 07:30:15;;;;;;;1.47;1.37;;;;;;;15.76;50.05;98431.75;1885718;74;28000;-63
2021/12/28 07:33:05;;;;;;;1.57;1.47;;;;;;;15.81;49.64;98415.70;1904149;74;27955;-63
2021/12/28 07:35:54;;;;;;;1.50;1.40;;;;;;;15.89;49.29;98426.29;1904191;74;28150;-64
2021/12/28 07:38:43;;;;;;;1.70;1.50;;;;;;;15.89;49.30;98432.52;1904858;74;28199;-64
2021/12/28 07:41:32;;;;;;;2.50;1.60;;;;;;;15.87;49.25;98448.66;1901498;75;27769;-63
2021/12/28 07:44:22;;;;;;;1.35;1.25;;;;;;;15.82;49.04;98437.68;1877474;75;28075;-63
2021/12/28 07:47:10;;;;;;;1.70;1.55;;;;;;;15.84;48.95;98444.55;1897279;74;28041;-62
2021/12/28 07:49:59;;;;;;;2.00;1.75;;;;;;;15.77;49.05;98445.61;1904855;74;28166;-62
2021/12/28 07:52:52;;;;;;;2.90;1.98;;;;;;;15.74;49.12;98451.45;1893673;75;28165;-63
2021/12/28 07:55:42;;;;;;;2.60;1.82;;;;;;;15.71;49.21;98472.17;1881734;75;28675;-61
2021/12/28 07:58:30;;;;;;;1.72;1.60;;;;;;;15.66;49.40;98474.17;1894055;74;28276;-60
2021/12/28 08:01:19;;;;;;;1.80;1.70;;;;;;;15.89;49.19;98462.84;1888161;75;28286;-60
2021/12/28 08:04:08;;;;;;;1.85;1.75;;;;;;;16.17;48.71;98463.31;1881115;75;27980;-60
2021/12/28 08:06:58;;;;;;;1.70;1.60;;;;;;;16.40;48.18;98454.61;1901236;74;28199;-61
2021/12/28 08:09:47;;;;;;;1.60;1.50;;;;;;;16.59;47.78;98457.19;1906503;74;27752;-62
2021/12/28 08:12:35;;;;;;;1.52;1.42;;;;;;;16.78;47.23;98459.98;1915198;74;28044;-62
2021/12/28 08:15:27;;;;;;;5.03;1.90;;;;;;;16.96;46.77;98465.45;1900891;74;28027;-63
2021/12/28 08:18:15;;;;;;;3.17;1.77;;;;;;;17.06;46.41;98473.36;1916268;74;28136;-67
2021/12/28 08:21:04;;;;;;;2.45;1.60;;;;;;;17.20;45.99;98461.33;1897870;74;28156;-62
2021/12/28 08:23:52;;;;;;;3.03;1.50;;;;;;;17.28;45.67;98476.50;1900425;74;28273;-62
2021/12/28 08:26:42;;;;;;;2.70;1.40;;;;;;;17.40;45.37;98473.34;1898058;74;28316;-62
2021/12/28 08:29:31;;;;;;;1.57;1.47;;;;;;;17.48;45.10;98486.60;1905817;74;28207;-62
2021/12/28 08:32:20;;;;;;;1.37;1.30;;;;;;;17.59;44.89;98490.50;1881658;75;28293;-62
2021/12/28 08:35:09;;;;;;;1.70;1.50;;;;;;;17.68;44.63;98498.13;1898431;74;28191;-65
2021/12/28 08:37:57;;;;;;;1.70;1.60;;;;;;;17.72;44.53;98506.11;1902469;74;28156;-63
2021/12/28 08:40:46;;;;;;;9.33;2.05;;;;;;;17.80;44.35;98505.82;1906793;74;28193;-63
2021/12/28 08:43:35;;;;;;;5.22;1.80;;;;;;;17.85;44.22;98507.30;1916859;74;27972;-64
2021/12/28 08:46:23;;;;;;;2.50;1.60;;;;;;;17.93;44.20;98505.64;1903077;74;28080;-63
2021/12/28 08:49:12;;;;;;;3.62;1.50;;;;;;;18.00;44.03;98499.28;1915698;74;28512;-61
2021/12/28 08:52:00;;;;;;;4.17;1.30;;;;;;;18.04;43.92;98510.02;1907369;74;27791;-62
2021/12/28 08:54:49;;;;;;;1.92;1.45;;;;;;;18.10;43.83;98526.76;1906034;74;28203;-62
2021/12/28 08:57:38;;;;;;;3.30;1.40;;;;;;;18.09;43.73;98528.64;1893750;74;27970;-61
2021/12/28 09:00:29;;;;;;;3.00;1.45;;;;;;;18.13;43.62;98540.73;1903669;74;38619;-60
2021/12/28 09:03:17;;;;;;;2.40;1.40;;;;;;;18.19;43.53;98519.94;1914582;74;28114;-63
2021/12/28 09:06:06;;;;;;;3.40;1.50;;;;;;;18.20;43.53;98520.26;1917002;74;27957;-64
2021/12/28 09:08:54;;;;;;;3.67;1.40;;;;;;;18.23;43.47;98540.16;1904861;74;28111;-63
2021/12/28 09:11:44;;;;;;;3.45;1.60;;;;;;;18.30;43.38;98542.27;1903970;74;28702;-62
2021/12/28 09:14:34;;;;;;;2.50;1.32;;;;;;;18.30;43.30;98553.97;1901468;75;28183;-62
2021/12/28 09:17:23;;;;;;;3.90;1.50;;;;;;;18.32;43.31;98557.84;1888209;75;27755;-62
2021/12/28 09:20:15;;;;;;;2.93;1.40;;;;;;;18.33;43.26;98552.69;1890959;75;28245;-70
2021/12/28 09:23:05;;;;;;;4.05;1.45;;;;;;;18.36;43.24;98557.67;1838758;76;28247;-66
2021/12/28 09:25:54;;;;;;;2.37;1.22;;;;;;;18.36;43.18;98559.03;1894746;75;28208;-66
2021/12/28 09:28:44;;;;;;;2.15;1.50;;;;;;;18.40;43.09;98575.18;1869341;76;28582;-65
2021/12/28 09:31:34;;;;;;;2.40;1.70;;;;;;;18.42;43.06;98578.49;1903269;74;28034;-68
2021/12/28 09:34:22;;;;;;;2.08;1.50;;;;;;;18.38;43.05;98580.02;1902892;74;30114;-70
2021/12/28 09:37:10;;;;;;;1.60;1.25;;;;;;;18.42;43.01;98583.41;1888979;75;27969;-68
2021/12/28 09:39:59;;;;;;;2.05;1.45;;;;;;;18.44;42.91;98585.37;1883607;74;28565;-69
2021/12/28 09:42:47;;;;;;;1.52;1.42;;;;;;;18.44;42.89;98594.05;1907747;74;28002;-64
2021/12/28 09:45:37;;;;;;;2.10;1.50;;;;;;;18.46;42.84;98599.59;1887574;74;28162;-65
2021/12/28 09:48:26;;;;;;;2.42;1.57;;;;;;;18.45;42.81;98607.47;1879474;75;31308;-66
2021/12/28 09:51:15;;;;;;;1.60;1.30;;;;;;;18.47;42.82;98609.95;1881478;75;27974;-66
2021/12/28 09:54:04;;;;;;;1.85;1.42;;;;;;;18.46;42.86;98610.47;1875871;75;27996;-64
2021/12/28 09:57:17;;;;;;;2.93;1.30;;;;;;;18.47;42.82;98615.38;1890481;75;28192;-64
2021/12/28 10:00:07;;;;;;;3.17;1.50;;;;;;;18.51;42.82;98622.02;1879697;75;28261;-66
2021/12/28 10:02:55;;;;;;;5.70;1.50;;;;;;;18.52;42.95;98615.53;1901546;75;28505;-67
2021/12/28 10:05:45;;;;;;;3.30;1.60;;;;;;;18.56;42.96;98609.92;1894842;75;28326;-67
2021/12/28 10:08:33;;;;;;;2.62;1.60;;;;;;;18.57;42.90;98603.44;1896498;75;38503;-67
2021/12/28 10:11:35;;;;;;;3.35;1.62;;;;;;;18.58;42.86;98618.68;1894021;74;28193;-67
2021/12/28 10:14:26;;;;;;;3.98;1.50;;;;;;;18.59;42.88;98608.95;1898878;74;28253;-68
2021/12/28 10:17:17;;;;;;;3.05;1.70;;;;;;;18.58;42.86;98637.20;1880736;75;28291;-68
2021/12/28 10:20:11;;;;;;;2.87;1.60;;;;;;;18.59;42.86;98632.59;1888260;74;27982;-68
2021/12/28 10:23:05;;;;;;;3.20;1.55;;;;;;;18.61;42.79;98638.11;1889373;74;28212;-68
2021/12/28 10:25:56;;;;;;;1.55;1.45;;;;;;;18.62;42.81;98635.67;1890805;74;28160;-67
2021/12/28 10:28:45;;;;;;;3.52;1.55;;;;;;;18.63;42.73;98629.70;1890194;74;28146;-68
2021/12/28 10:31:34;;;;;;;4.00;1.60;;;;;;;18.62;42.78;98634.86;1890646;74;28144;-68
2021/12/28 10:34:22;;;;;;;3.00;1.60;;;;;;;18.60;42.75;98646.47;1877517;75;28239;-68
2021/12/28 10:37:20;;;;;;;2.83;1.72;;;;;;;18.65;42.68;98665.66;1901409;75;28011;-68
2021/12/28 10:40:12;;;;;;;3.50;1.53;;;;;;;18.63;42.72;98667.27;1888980;75;28311;-69
2021/12/28 10:43:09;;;;;;;2.05;1.65;;;;;;;18.61;42.76;98631.83;1868450;76;28266;-67
2021/12/28 10:46:06;;;;;;;1.52;1.40;;;;;;;18.62;42.77;98620.70;1897600;75;27971;-66
2021/12/28 10:49:00;;;;;;;1.90;1.40;;;;;;;18.62;42.82;98639.75;1901579;75;28242;-69
2021/12/28 10:51:52;;;;;;;2.72;1.32;;;;;;;18.65;42.92;98659.41;1889442;75;27968;-67
2021/12/28 10:54:39;;;;;;;2.52;1.90;;;;;;;18.63;43.04;98667.27;1886871;74;27978;-64
2021/12/28 10:57:42;;;;;;;2.70;1.40;;;;;;;18.65;43.19;98656.14;1903842;74;29934;-64
2021/12/28 11:00:41;;;;;;;2.60;1.62;;;;;;;18.65;43.20;98637.10;1891488;74;28049;-63
2021/12/28 11:03:35;;;;;;;2.23;1.60;;;;;;;18.66;43.30;98626.53;1901573;75;28150;-64
2021/12/28 11:06:30;;;;;;;3.58;1.55;;;;;;;18.67;43.44;98638.25;1905712;74;27975;-63
2021/12/28 11:09:21;;;;;;;3.22;1.55;;;;;;;18.66;43.49;98642.86;1903848;74;28189;-63
2021/12/28 11:12:10;;;;;;;1.92;1.52;;;;;;;18.71;43.56;98639.45;1884003;74;28166;-67
2021/12/28 11:15:01;;;;;;;2.90;1.53;;;;;;;18.72;43.57;98636.48;1891045;74;28208;-68
2021/12/28 11:17:50;;;;;;;1.98;1.52;;;;;;;18.71;43.62;98641.64;1870438;75;28265;-67
2021/12/28 11:20:38;;;;;;;3.30;1.40;;;;;;;18.71;43.69;98648.44;1896282;75;28586;-64
2021/12/28 11:23:29;;;;;;;2.25;1.32;;;;;;;18.71;43.67;98630.77;1901397;75;28174;-62
2021/12/28 11:26:26;;;;;;;1.75;1.50;;;;;;;18.75;43.74;98606.63;1901374;74;27705;-64
2021/12/28 11:29:19;;;;;;;2.33;1.60;;;;;;;18.75;43.76;98599.31;1901365;75;28131;-64
2021/12/28 11:32:20;;;;;;;1.85;1.50;;;;;;;18.75;43.73;98604.75;1876541;75;28313;-64
2021/12/28 11:35:09;;;;;;;3.95;1.40;;;;;;;18.76;43.79;98611.86;1882498;74;28213;-65
2021/12/28 11:37:58;;;;;;;2.50;1.40;;;;;;;18.81;43.78;98622.86;1894966;75;28062;-64
2021/12/28 11:40:48;;;;;;;1.97;1.47;;;;;;;18.85;43.68;98629.52;1891288;75;28288;-64
2021/12/28 11:43:38;;;;;;;1.40;1.30;;;;;;;18.88;43.67;98619.52;1889051;75;28155;-65
2021/12/28 11:46:27;;;;;;;2.30;1.30;;;;;;;18.90;43.68;98604.34;1886823;74;27970;-64
2021/12/28 11:49:16;;;;;;;1.65;1.55;;;;;;;18.91;43.62;98606.81;1901967;74;28037;-64
2021/12/28 11:52:07;;;;;;;3.30;1.47;;;;;;;18.94;43.55;98603.64;1892129;75;27963;-64
2021/12/28 11:55:14;;;;;;;1.50;1.40;;;;;;;18.96;43.48;98602.87;1902991;74;28199;-64
2021/12/28 11:58:03;;;;;;;2.75;1.32;;;;;;;18.95;43.52;98593.03;1884967;75;28005;-64
2021/12/28 12:00:52;;;;;;;1.37;1.27;;;;;;;18.97;43.46;98599.63;1877332;75;28105;-64
2021/12/28 12:03:43;;;;;;;2.12;1.30;;;;;;;18.99;43.45;98598.33;1902297;74;28150;-65
2021/12/28 12:06:59;;;;;;;1.60;1.20;;;;;;;19.02;43.44;98607.92;1903688;74;28236;-65
2021/12/28 12:09:54;;;;;;;1.20;1.13;;;;;;;19.03;43.41;98609.05;1879004;75;28124;-66
2021/12/28 12:12:58;;;;;;;2.17;1.37;;;;;;;19.03;43.43;98613.65;1885966;74;28267;-67
2021/12/28 12:15:50;;;;;;;2.80;1.10;;;;;;;19.03;43.45;98610.93;1881163;75;28028;-67
2021/12/28 12:18:48;;;;;;;2.60;1.37;;;;;;;19.02;43.43;98616.09;1889641;75;28229;-66
2021/12/28 12:21:37;;;;;;;2.77;1.30;;;;;;;19.05;43.41;98617.80;1894556;75;28203;-67
2021/12/28 12:24:39;;;;;;;1.77;1.20;;;;;;;19.04;43.42;98606.60;1875255;73;28228;-67
2021/12/28 12:27:59;;;;;;;2.33;1.20;;;;;;;19.07;43.43;98602.06;1843343;76;28232;-65
2021/12/28 12:30:51;;;;;;;1.10;1.00;;;;;;;19.07;43.40;98599.34;1862069;76;28252;-64
2021/12/28 12:33:45;;;;;;;1.30;1.20;;;;;;;19.09;43.47;98584.97;1832064;77;28330;-62
2021/12/28 12:36:41;;;;;;;3.00;1.42;;;;;;;19.09;43.39;98566.47;1848216;75;28127;-62
2021/12/28 12:39:32;;;;;;;1.77;1.30;;;;;;;19.10;43.37;98572.19;1875417;75;28269;-62
2021/12/28 12:42:21;;;;;;;1.90;1.52;;;;;;;19.08;43.38;98579.77;1847324;76;28184;-62
2021/12/28 12:45:09;;;;;;;2.03;1.60;;;;;;;19.10;43.43;98586.64;1850681;76;28172;-64
2021/12/28 12:47:58;;;;;;;5.05;1.90;;;;;;;19.10;43.51;98575.75;1835838;77;28255;-62
2021/12/28 12:50:47;;;;;;;2.62;1.80;;;;;;;19.11;43.60;98603.80;1818856;78;28245;-63
2021/12/28 12:53:47;;;;;;;4.10;1.85;;;;;;;19.09;43.63;98614.10;1822490;78;28204;-62
2021/12/28 12:56:59;;;;;;;4.42;2.10;;;;;;;19.08;43.71;98594.20;1820334;78;28279;-63
2021/12/28 12:59:47;;;;;;;2.80;2.12;;;;;;;19.11;43.74;98580.11;1797487;79;28339;-63
2021/12/28 13:02:38;;;;;;;4.15;2.02;;;;;;;19.08;43.82;98588.77;1803817;78;28313;-63
2021/12/28 13:05:28;;;;;;;5.30;2.40;;;;;;;19.07;43.88;98578.93;1789242;79;28406;-63
2021/12/28 13:08:18;;;;;;;4.03;2.27;;;;;;;19.09;43.97;98572.72;1789174;79;28433;-63
2021/12/28 13:11:07;;;;;;;4.50;2.52;;;;;;;19.12;43.97;98565.45;1787302;79;28400;-63
2021/12/28 13:13:57;;;;;;;3.35;2.42;;;;;;;19.13;44.00;98560.84;1783804;79;28399;-62
2021/12/28 13:16:58;;;;;;;4.47;2.40;;;;;;;19.11;44.03;98569.22;1792496;78;28426;-63
2021/12/28 13:20:17;;;;;;;5.05;2.62;;;;;;;19.14;44.06;98577.45;1801393;78;28316;-63
2021/12/28 13:23:09;;;;;;;4.62;3.30;;;;;;;19.11;44.08;98588.83;1798573;78;28344;-62
2021/12/28 13:25:58;;;;;;;4.40;2.40;;;;;;;19.08;44.23;98586.05;1797941;78;28285;-63
2021/12/28 13:28:48;;;;;;;4.22;2.50;;;;;;;19.10;44.24;98593.44;1808395;78;28380;-62
2021/12/28 13:31:37;;;;;;;5.15;2.65;;;;;;;19.12;44.25;98593.20;1771400;79;28920;-61
2021/12/28 13:34:26;;;;;;;3.58;2.55;;;;;;;19.14;44.12;98588.34;1814750;78;28319;-63
2021/12/28 13:37:14;;;;;;;2.90;2.30;;;;;;;19.14;44.16;98580.17;1847527;77;28648;-63
2021/12/28 13:40:05;;;;;;;4.10;2.70;;;;;;;19.15;44.16;98573.16;1835342;77;28380;-62
2021/12/28 13:43:04;;;;;;;5.10;2.50;;;;;;;19.14;44.13;98575.56;1870756;76;28166;-62
2021/12/28 13:46:01;;;;;;;3.10;2.42;;;;;;;19.16;44.14;98588.97;1859738;75;28265;-62
2021/12/28 13:48:50;;;;;;;4.65;2.40;;;;;;;19.11;44.17;98590.20;1832675;77;31610;-63
2021/12/28 13:51:39;;;;;;;3.22;2.30;;;;;;;19.15;44.11;98579.12;1861096;76;28297;-64
2021/12/28 13:54:27;;;;;;;3.58;2.40;;;;;;;19.17;44.11;98583.80;1860864;76;28065;-64
2021/12/28 13:57:19;;;;;;;5.08;2.25;;;;;;;19.17;44.08;98581.92;1875932;75;28111;-64
2021/12/28 14:00:11;;;;;;;2.90;2.23;;;;;;;19.17;44.04;98587.36;1844720;76;28254;-62
2021/12/28 14:03:06;;;;;;;3.50;2.42;;;;;;;19.17;44.01;98599.61;1842196;77;28120;-62
2021/12/28 14:05:55;;;;;;;5.30;2.30;;;;;;;19.19;44.00;98606.17;1853311;76;28338;-62
2021/12/28 14:08:44;;;;;;;4.03;2.33;;;;;;;19.17;44.03;98600.97;1856892;76;28337;-63
2021/12/28 14:11:39;;;;;;;4.05;2.02;;;;;;;19.17;43.95;98591.44;1864718;76;32969;-63
2021/12/28 14:14:33;;;;;;;2.20;1.92;;;;;;;19.20;43.99;98595.06;1864949;76;28283;-62
2021/12/28 14:17:23;;;;;;;4.87;2.15;;;;;;;19.18;43.95;98621.67;1849275;77;28289;-63
2021/12/28 14:20:11;;;;;;;2.30;2.08;;;;;;;19.20;43.91;98607.32;1856841;75;28240;-62
2021/12/28 14:23:00;;;;;;;2.08;1.85;;;;;;;19.20;43.96;98594.23;1857232;76;28119;-64
2021/12/28 14:25:49;;;;;;;2.27;2.05;;;;;;;19.21;43.90;98588.54;1871155;75;28120;-62
2021/12/28 14:28:41;;;;;;;3.75;2.30;;;;;;;19.22;43.81;98605.19;1847870;76;28234;-63
2021/12/28 14:31:44;;;;;;;3.52;2.00;;;;;;;19.23;43.84;98600.55;1866896;76;28237;-63
2021/12/28 14:34:35;;;;;;;2.27;1.90;;;;;;;19.20;43.87;98609.20;1841733;76;28178;-64
2021/12/28 14:37:24;;;;;;;2.83;2.00;;;;;;;19.17;43.88;98598.77;1828932;77;28383;-63
2021/12/28 14:40:36;;;;;;;3.25;2.00;;;;;;;19.16;43.93;98617.55;1862421;75;28227;-63
2021/12/28 14:43:20;;;;;;;3.80;2.08;;;;;;;19.20;43.88;98613.29;1838961;77;28062;-62
2021/12/28 14:46:11;;;;;;;2.10;1.90;;;;;;;19.17;43.94;98620.03;1879004;75;28670;-65
2021/12/28 14:49:00;;;;;;;3.20;1.90;;;;;;;19.17;43.94;98643.69;1871913;76;28117;-63
2021/12/28 14:51:49;;;;;;;2.25;1.80;;;;;;;19.19;43.87;98649.20;1859451;76;28182;-63
2021/12/28 14:54:38;;;;;;;2.37;1.80;;;;;;;19.23;43.85;98642.22;1855985;76;28329;-64
2021/12/28 14:57:29;;;;;;;2.70;2.20;;;;;;;19.22;43.82;98633.77;1853963;76;28181;-64
2021/12/28 15:00:20;;;;;;;3.17;1.80;;;;;;;19.24;43.78;98627.56;1861684;76;28241;-63
2021/12/28 15:03:16;;;;;;;4.12;2.00;;;;;;;19.24;43.80;98621.28;1853405;75;28350;-65
2021/12/28 15:06:05;;;;;;;2.20;1.90;;;;;;;19.27;43.76;98624.91;1846123;77;28244;-63
2021/12/28 15:08:54;;;;;;;2.65;1.90;;;;;;;19.23;43.71;98638.14;1863875;76;28328;-64
2021/12/28 15:11:46;;;;;;;2.12;1.90;;;;;;;19.25;43.70;98644.17;1877161;75;28164;-63
2021/12/28 15:14:34;;;;;;;4.10;1.90;;;;;;;19.26;43.70;98622.70;1872342;76;28121;-64
2021/12/28 15:17:23;;;;;;;2.98;2.15;;;;;;;19.25;43.70;98606.61;1874660;76;28301;-64
2021/12/28 15:20:13;;;;;;;1.92;1.75;;;;;;;19.24;43.70;98637.09;1875611;76;28196;-63
2021/12/28 15:23:02;;;;;;;1.80;1.70;;;;;;;19.26;43.68;98647.20;1874090;76;28234;-63
2021/12/28 15:25:51;;;;;;;1.90;1.70;;;;;;;19.27;43.58;98611.29;1876417;76;28234;-64
2021/12/28 15:28:40;;;;;;;2.60;1.70;;;;;;;19.27;43.60;98624.38;1874187;76;28057;-63
2021/12/28 15:31:28;;;;;;;2.15;1.70;;;;;;;19.28;43.60;98642.88;1874050;76;28069;-63
2021/12/28 15:34:24;;;;;;;2.67;1.90;;;;;;;19.26;43.58;98654.02;1829508;77;28311;-64
2021/12/28 15:37:10;;;;;;;1.70;1.60;;;;;;;19.28;43.54;98646.44;1862013;75;28217;-64
2021/12/28 15:39:59;;;;;;;2.10;1.90;;;;;;;19.29;43.52;98635.86;1856490;75;28339;-63
2021/12/28 15:42:48;;;;;;;2.27;1.80;;;;;;;19.28;43.51;98639.63;1872016;76;28147;-63
2021/12/28 15:45:39;;;;;;;1.90;1.70;;;;;;;19.27;43.52;98635.27;1880623;75;28207;-63
2021/12/28 15:48:28;;;;;;;3.20;1.80;;;;;;;19.29;43.49;98654.92;1867170;76;28183;-63
2021/12/28 15:51:17;;;;;;;1.87;1.70;;;;;;;19.30;43.43;98656.56;1856387;76;28288;-63
2021/12/28 15:54:08;;;;;;;1.90;1.75;;;;;;;19.28;43.44;98636.91;1858649;76;28113;-61
2021/12/28 15:56:57;;;;;;;2.10;1.70;;;;;;;19.30;43.42;98619.80;1858600;76;28124;-63
2021/12/28 15:59:45;;;;;;;2.60;1.90;;;;;;;19.25;43.41;98624.31;1867283;76;28329;-63
2021/12/28 16:02:34;;;;;;;2.12;1.92;;;;;;;19.24;43.48;98662.95;1849395;76;28120;-62
2021/12/28 16:05:26;;;;;;;1.70;1.60;;;;;;;19.25;43.51;98670.04;1852018;76;28317;-62
2021/12/28 16:08:16;;;;;;;3.47;1.72;;;;;;;19.27;43.48;98673.39;1856741;76;28102;-62
2021/12/28 16:11:04;;;;;;;1.92;1.62;;;;;;;19.27;43.46;98687.53;1860259;76;28722;-63
2021/12/28 16:13:56;;;;;;;1.80;1.70;;;;;;;19.27;43.47;98689.73;1849123;76;28160;-63
2021/12/28 16:16:45;;;;;;;1.90;1.80;;;;;;;19.27;43.48;98687.53;1868396;76;31028;-63
2021/12/28 16:19:34;;;;;;;2.12;1.60;;;;;;;19.28;43.50;98687.80;1837429;76;28215;-63
2021/12/28 16:22:23;;;;;;;2.12;1.80;;;;;;;19.28;43.46;98677.75;1851250;76;28049;-62
2021/12/28 16:25:12;;;;;;;2.85;1.80;;;;;;;19.28;43.42;98684.56;1865334;76;28257;-62
2021/12/28 16:28:00;;;;;;;1.95;1.60;;;;;;;19.30;43.39;98686.52;1865540;76;28404;-63
2021/12/28 16:30:50;;;;;;;1.52;1.50;;;;;;;19.33;43.31;98687.42;1870686;76;28111;-63
2021/12/28 16:33:39;;;;;;;2.60;1.70;;;;;;;19.29;43.38;98688.95;1853579;76;28317;-64
2021/12/28 16:36:27;;;;;;;2.05;1.85;;;;;;;19.32;43.36;98695.83;1857824;76;28112;-64
2021/12/28 16:39:17;;;;;;;1.50;1.40;;;;;;;19.32;43.34;98712.17;1857415;76;28254;-64
2021/12/28 16:42:06;;;;;;;2.22;1.77;;;;;;;19.32;43.33;98717.06;1878253;75;28087;-64
2021/12/28 16:44:54;;;;;;;1.80;1.63;;;;;;;19.32;43.30;98729.31;1847844;76;28175;-64
2021/12/28 16:47:43;;;;;;;2.00;1.80;;;;;;;19.31;43.33;98731.75;1859966;76;28109;-64
2021/12/28 16:50:35;;;;;;;1.62;1.52;;;;;;;19.33;43.29;98739.16;1859147;76;28321;-64
2021/12/28 16:53:25;;;;;;;2.30;1.70;;;;;;;19.35;43.24;98741.64;1860284;76;28287;-64
2021/12/28 16:56:13;;;;;;;2.30;1.50;;;;;;;19.33;43.23;98745.13;1850492;76;28054;-64
2021/12/28 16:59:02;;;;;;;1.70;1.60;;;;;;;19.35;43.26;98747.64;1861577;76;28068;-64
2021/12/28 17:01:52;;;;;;;1.63;1.50;;;;;;;19.32;43.23;98739.40;1863701;76;28151;-62
2021/12/28 17:04:40;;;;;;;1.80;1.70;;;;;;;19.35;43.24;98735.39;1864705;76;28779;-62
2021/12/28 17:07:29;;;;;;;1.55;1.45;;;;;;;19.35;43.26;98740.28;1843258;76;28119;-62
2021/12/28 17:10:17;;;;;;;1.80;1.70;;;;;;;19.35;43.21;98733.47;1874009;76;28118;-62
2021/12/28 17:13:06;;;;;;;1.80;1.70;;;;;;;19.36;43.13;98739.27;1862398;76;28250;-62
2021/12/28 17:15:55;;;;;;;2.00;1.57;;;;;;;19.32;43.21;98747.02;1862547;76;28281;-62
2021/12/28 17:18:46;;;;;;;1.60;1.50;;;;;;;19.37;43.16;98744.19;1865453;76;28251;-62
2021/12/28 17:21:34;;;;;;;1.67;1.57;;;;;;;19.36;43.15;98739.27;1852549;76;28152;-62
2021/12/28 17:24:23;;;;;;;1.67;1.40;;;;;;;19.39;43.11;98733.36;1880081;76;28116;-63
2021/12/28 17:27:12;;;;;;;1.62;1.52;;;;;;;19.36;43.12;98725.64;1882706;75;28269;-62
2021/12/28 17:30:00;;;;;;;1.70;1.60;;;;;;;19.40;43.12;98724.11;1865744;75;28169;-62
2021/12/28 17:32:49;;;;;;;1.50;1.40;;;;;;;19.41;43.10;98727.67;1874866;76;28095;-62
2021/12/28 17:35:37;;;;;;;1.60;1.50;;;;;;;19.39;43.07;98715.66;1859775;76;28172;-62
2021/12/28 17:38:26;;;;;;;1.55;1.45;;;;;;;19.38;43.03;98712.63;1801790;78;28300;-63
2021/12/28 17:41:14;;;;;;;1.55;1.47;;;;;;;19.33;43.08;98698.84;1843632;76;28125;-62
2021/12/28 17:44:03;;;;;;;1.85;1.67;;;;;;;19.36;43.09;98707.11;1858376;76;28237;-62
2021/12/28 17:46:52;;;;;;;1.70;1.60;;;;;;;19.38;43.05;98701.73;1861421;76;28213;-62
2021/12/28 17:49:40;;;;;;;1.60;1.50;;;;;;;19.37;43.05;98706.06;1843028;76;28227;-62
2021/12/28 17:52:29;;;;;;;1.60;1.50;;;;;;;19.39;43.04;98706.66;1868899;76;28182;-62
2021/12/28 17:55:18;;;;;;;1.50;1.40;;;;;;;19.40;43.02;98711.02;1872475;76;28132;-62
2021/12/28 17:58:08;;;;;;;1.70;1.60;;;;;;;19.41;43.01;98723.06;1865551;76;28240;-63
2021/12/28 18:00:57;;;;;;;1.57;1.47;;;;;;;19.41;43.01;98730.39;1852282;75;28148;-62
2021/12/28 18:03:45;;;;;;;1.57;1.47;;;;;;;19.42;42.98;98736.96;1855634;76;28666;-62
2021/12/28 18:06:34;;;;;;;1.85;1.45;;;;;;;19.43;42.95;98735.08;1864228;76;28079;-62
2021/12/28 18:09:22;;;;;;;1.60;1.50;;;;;;;19.39;42.98;98742.05;1862752;76;32024;-62
2021/12/28 18:12:10;;;;;;;1.57;1.47;;;;;;;19.43;42.97;98753.61;1842184;76;28127;-62
2021/12/28 18:14:59;;;;;;;1.67;1.57;;;;;;;19.41;42.96;98754.91;1862118;76;28143;-63
2021/12/28 18:17:48;;;;;;;1.60;1.50;;;;;;;19.42;42.97;98760.11;1862835;76;28313;-62
2021/12/28 18:20:37;;;;;;;1.65;1.50;;;;;;;19.43;42.91;98763.14;1848195;75;28052;-62
2021/12/28 18:23:26;;;;;;;1.60;1.50;;;;;;;19.41;42.93;98769.36;1854208;76;28245;-62
2021/12/28 18:26:17;;;;;;;1.60;1.40;;;;;;;19.41;42.92;98761.19;1857679;76;28118;-62
2021/12/28 18:29:09;;;;;;;1.57;1.47;;;;;;;19.42;42.89;98760.11;1862867;76;28272;-62
2021/12/28 18:31:58;;;;;;;1.70;1.60;;;;;;;19.44;42.91;98759.89;1850134;76;28211;-62
2021/12/28 18:34:46;;;;;;;1.77;1.67;;;;;;;19.41;42.86;98761.72;1852129;76;28804;-62
2021/12/28 18:37:34;;;;;;;1.90;1.50;;;;;;;19.43;42.90;98761.78;1816762;78;28218;-62
2021/12/28 18:40:24;;;;;;;1.50;1.40;;;;;;;19.43;42.85;98771.84;1856095;76;28229;-62
2021/12/28 18:43:13;;;;;;;1.98;1.50;;;;;;;19.42;42.95;98767.47;1838878;76;28150;-63
2021/12/28 18:46:03;;;;;;;1.50;1.40;;;;;;;19.42;42.87;98770.20;1860417;76;28083;-63
2021/12/28 18:48:52;;;;;;;1.70;1.60;;;;;;;19.43;42.88;98762.30;1861381;76;28235;-63
2021/12/28 18:51:42;;;;;;;1.27;1.20;;;;;;;19.43;42.84;98753.61;1856406;76;28246;-62
2021/12/28 18:54:31;;;;;;;1.62;1.50;;;;;;;19.44;42.81;98755.25;1797947;78;28659;-64
2021/12/28 18:57:21;;;;;;;1.55;1.45;;;;;;;19.45;42.81;98749.28;1860998;76;28164;-62
2021/12/28 19:00:15;;;;;;;1.67;1.42;;;;;;;19.43;42.82;98752.25;1853523;76;28725;-62
2021/12/28 19:03:03;;;;;;;1.40;1.37;;;;;;;19.42;42.87;98744.33;1860802;76;28190;-62
2021/12/28 19:05:56;;;;;;;1.55;1.45;;;;;;;19.44;42.78;98753.09;1822250;78;28360;-64
2021/12/28 19:08:45;;;;;;;1.57;1.50;;;;;;;19.44;42.81;98746.28;1875270;76;28126;-62
2021/12/28 19:11:34;;;;;;;1.60;1.50;;;;;;;19.46;42.78;98755.88;1873279;76;28055;-62
2021/12/28 19:14:28;;;;;;;2.02;1.60;;;;;;;19.47;42.77;98755.33;1855236;76;28098;-62
2021/12/28 19:17:13;;;;;;;1.52;1.42;;;;;;;19.46;42.80;98763.22;1845709;76;28178;-63
2021/12/28 19:20:01;;;;;;;1.57;1.47;;;;;;;19.45;42.76;98758.81;1859983;76;28216;-63
2021/12/28 19:22:50;;;;;;;1.82;1.60;;;;;;;19.43;42.74;98759.59;1859580;76;28253;-62